createdAt,value
2022-08-21T00:02:02.595Z,22.35
2022-08-21T00:04:30.094Z,22.65
2022-08-21T00:06:57.978Z,22.98
2022-08-21T00:09:24.634Z,20.17
2022-08-21T00:11:51.264Z,35.78
2022-08-21T00:14:17.975Z,21.95
2022-08-21T00:16:44.679Z,23.92
2022-08-21T00:19:11.931Z,22.58
2022-08-21T00:21:38.559Z,23.75
2022-08-21T00:24:05.947Z,24.13
2022-08-21T00:26:34.517Z,24.25
2022-08-21T00:29:01.125Z,24.95
2022-08-21T00:31:28.516Z,27.40
2022-08-21T00:33:59.366Z,20.95
2022-08-21T00:36:27.854Z,26.55
2022-08-21T00:38:54.460Z,26.60
2022-08-21T00:41:37.018Z,31.30
2022-08-21T00:44:06.584Z,26.80
2022-08-21T00:46:33.270Z,24.58
2022-08-21T00:48:59.827Z,29.38
2022-08-21T00:51:38.371Z,23.88
2022-08-21T00:54:06.683Z,27.13
2022-08-21T00:56:39.648Z,22.90
2022-08-21T00:59:09.235Z,27.88
2022-08-21T01:01:36.302Z,24.35
2022-08-21T01:04:03.538Z,26.15
2022-08-21T01:06:30.268Z,24.65
2022-08-21T01:08:56.843Z,25.63
2022-08-21T01:11:23.494Z,26.20
2022-08-21T01:13:50.859Z,25.23
2022-08-21T01:16:21.251Z,28.88
2022-08-21T01:18:48.746Z,28.52
2022-08-21T01:21:20.266Z,28.73
2022-08-21T01:23:50.655Z,30.15
2022-08-21T01:26:21.569Z,30.42
2022-08-21T01:29:01.352Z,29.58
2022-08-21T01:31:29.376Z,29.75
2022-08-21T01:33:57.456Z,26.70
2022-08-21T01:36:24.989Z,28.00
2022-08-21T01:38:51.672Z,31.58
2022-08-21T01:41:18.945Z,27.55
2022-08-21T01:43:46.139Z,32.65
2022-08-21T01:46:13.652Z,30.90
2022-08-21T01:48:41.205Z,28.10
2022-08-21T01:51:07.838Z,28.45
2022-08-21T01:53:37.629Z,38.22
2022-08-21T01:56:12.097Z,37.83
2022-08-21T01:58:40.497Z,28.85
2022-08-21T02:01:07.285Z,28.38
2022-08-21T02:03:35.772Z,30.48
2022-08-21T02:06:04.664Z,25.90
2022-08-21T02:08:31.816Z,32.15
2022-08-21T02:10:58.495Z,29.73
2022-08-21T02:13:25.490Z,29.63
2022-08-21T02:15:52.078Z,26.00
2022-08-21T02:18:19.304Z,26.40
2022-08-21T02:20:49.395Z,27.73
2022-08-21T02:23:27.027Z,28.40
2022-08-21T02:25:56.041Z,26.13
2022-08-21T02:28:22.688Z,23.33
2022-08-21T02:30:50.675Z,26.60
2022-08-21T02:33:22.535Z,21.90
2022-08-21T02:35:54.023Z,29.00
2022-08-21T02:38:23.855Z,27.00
2022-08-21T02:40:52.298Z,23.52
2022-08-21T02:43:21.511Z,25.30
2022-08-21T02:45:49.791Z,23.00
2022-08-21T02:48:20.511Z,26.35
2022-08-21T02:50:52.635Z,20.33
2022-08-21T02:53:20.037Z,28.75
2022-08-21T02:55:49.524Z,22.65
2022-08-21T02:58:19.655Z,23.02
2022-08-21T03:00:46.435Z,24.17
2022-08-21T03:03:14.287Z,23.20
2022-08-21T03:05:41.397Z,21.70
2022-08-21T03:08:11.256Z,22.25
2022-08-21T03:10:42.283Z,30.63
2022-08-21T03:13:09.531Z,22.35
2022-08-21T03:15:37.096Z,30.02
2022-08-21T03:18:06.042Z,26.83
2022-08-21T03:20:33.595Z,28.35
2022-08-21T03:23:01.214Z,23.63
2022-08-21T03:25:40.514Z,27.02
2022-08-21T03:28:13.745Z,25.55
2022-08-21T03:30:42.509Z,30.85
2022-08-21T03:33:09.302Z,32.40
2022-08-21T03:35:39.971Z,28.85
2022-08-21T03:38:06.589Z,31.45
2022-08-21T03:40:33.183Z,32.63
2022-08-21T03:42:59.956Z,29.80
2022-08-21T03:45:26.555Z,29.23
2022-08-21T03:47:59.323Z,31.02
2022-08-21T03:50:29.327Z,28.95
2022-08-21T03:52:56.175Z,32.65
2022-08-21T03:55:23.108Z,30.45
2022-08-21T03:57:49.828Z,29.85
2022-08-21T04:00:17.963Z,33.85
2022-08-21T04:02:44.745Z,33.38
2022-08-21T04:05:13.234Z,30.30
2022-08-21T04:07:39.859Z,32.58
2022-08-21T04:10:08.201Z,29.23
2022-08-21T04:12:34.890Z,32.72
2022-08-21T04:15:02.880Z,33.55
2022-08-21T04:17:29.495Z,29.83
2022-08-21T04:19:56.175Z,34.67
2022-08-21T04:22:23.328Z,30.92
2022-08-21T04:24:50.815Z,31.30
2022-08-21T04:27:17.445Z,31.23
2022-08-21T04:29:44.078Z,35.30
2022-08-21T04:32:10.626Z,29.35
2022-08-21T04:34:37.423Z,28.25
2022-08-21T04:37:04.653Z,28.77
2022-08-21T04:39:31.246Z,29.65
2022-08-21T04:41:57.829Z,26.25
2022-08-21T04:44:24.575Z,27.70
2022-08-21T04:46:51.170Z,27.85
2022-08-21T04:49:18.357Z,28.70
2022-08-21T04:51:45.238Z,31.67
2022-08-21T04:54:15.659Z,25.50
2022-08-21T04:56:49.808Z,23.70
2022-08-21T04:59:23.362Z,24.50
2022-08-21T05:01:51.758Z,25.77
2022-08-21T05:04:24.751Z,24.38
2022-08-21T05:06:55.587Z,28.02
2022-08-21T05:09:23.010Z,21.45
2022-08-21T05:11:49.922Z,19.65
2022-08-21T05:14:17.038Z,24.20
2022-08-21T05:16:44.997Z,19.77
2022-08-21T05:19:11.810Z,22.55
2022-08-21T05:21:42.911Z,20.10
2022-08-21T05:24:10.357Z,23.63
2022-08-21T05:26:45.473Z,21.98
2022-08-21T05:29:14.428Z,20.13
2022-08-21T05:31:42.182Z,24.13
2022-08-21T05:34:09.132Z,23.63
2022-08-21T05:36:37.408Z,24.33
2022-08-21T05:39:04.490Z,23.40
2022-08-21T05:41:31.118Z,22.70
2022-08-21T05:44:01.038Z,23.63
2022-08-21T05:46:27.740Z,22.48
2022-08-21T05:48:54.420Z,23.75
2022-08-21T05:51:21.248Z,23.23
2022-08-21T05:53:48.462Z,21.98
2022-08-21T05:56:15.814Z,26.58
2022-08-21T05:58:42.810Z,26.45
2022-08-21T06:01:10.331Z,25.23
2022-08-21T06:03:39.997Z,27.10
2022-08-21T06:06:07.535Z,25.50
2022-08-21T06:08:35.037Z,26.90
2022-08-21T06:11:03.494Z,28.63
2022-08-21T06:13:30.418Z,30.38
2022-08-21T06:16:15.687Z,25.73
2022-08-21T06:18:44.650Z,28.88
2022-08-21T06:21:12.645Z,27.15
2022-08-21T06:23:39.332Z,27.50
2022-08-21T06:26:08.088Z,30.45
2022-08-21T06:28:36.460Z,29.27
2022-08-21T06:31:12.648Z,33.40
2022-08-21T06:36:12.338Z,27.58
2022-08-21T06:38:39.706Z,30.98
2022-08-21T06:41:07.464Z,28.27
2022-08-21T06:43:39.860Z,32.47
2022-08-21T06:46:08.640Z,26.63
2022-08-21T06:48:35.298Z,29.30
2022-08-21T06:51:02.614Z,25.45
2022-08-21T06:53:29.270Z,25.40
2022-08-21T06:55:56.037Z,24.88
2022-08-21T06:58:22.682Z,25.85
2022-08-21T07:00:52.286Z,30.80
2022-08-21T07:03:23.584Z,32.35
2022-08-21T07:05:50.833Z,27.42
2022-08-21T07:08:17.644Z,31.08
2022-08-21T07:10:44.551Z,28.80
2022-08-21T07:13:11.168Z,27.10
2022-08-21T07:15:37.746Z,26.67
2022-08-21T07:18:04.809Z,28.75
2022-08-21T07:20:32.725Z,28.85
2022-08-21T07:23:02.799Z,28.38
2022-08-21T07:25:29.479Z,29.05
2022-08-21T07:27:56.532Z,29.98
2022-08-21T07:30:24.145Z,28.83
2022-08-21T07:32:51.514Z,35.40
2022-08-21T07:35:20.199Z,31.98
2022-08-21T07:37:47.553Z,32.13
2022-08-21T07:40:14.804Z,33.53
2022-08-21T07:42:44.604Z,31.55
2022-08-21T07:45:12.128Z,35.13
2022-08-21T07:47:42.288Z,35.33
2022-08-21T07:50:12.274Z,37.80
2022-08-21T07:52:40.190Z,33.17
2022-08-21T07:55:08.822Z,34.90
2022-08-21T07:57:35.474Z,34.80
2022-08-21T08:00:02.600Z,40.97
2022-08-21T08:02:31.106Z,39.25
2022-08-21T08:05:02.072Z,32.97
2022-08-21T08:07:28.818Z,37.63
2022-08-21T08:09:55.523Z,39.20
2022-08-21T08:12:22.569Z,31.17
2022-08-21T08:14:49.210Z,32.80
2022-08-21T08:17:15.823Z,32.97
2022-08-21T08:19:42.451Z,36.40
2022-08-21T08:22:20.205Z,35.00
2022-08-21T08:24:47.887Z,32.10
2022-08-21T08:27:14.602Z,36.00
2022-08-21T08:29:41.277Z,36.17
2022-08-21T08:32:09.176Z,36.28
2022-08-21T08:34:37.749Z,41.25
2022-08-21T08:37:04.967Z,37.17
2022-08-21T08:39:34.480Z,37.65
2022-08-21T08:42:32.050Z,37.92
2022-08-21T08:45:12.471Z,43.08
2022-08-21T08:47:45.557Z,40.53
2022-08-21T08:50:21.178Z,40.45
2022-08-21T08:52:58.795Z,40.95
2022-08-21T08:55:40.145Z,38.63
2022-08-21T08:58:08.027Z,42.38
2022-08-21T09:00:34.844Z,39.72
2022-08-21T09:03:03.831Z,40.25
2022-08-21T09:05:47.884Z,37.80
2022-08-21T09:08:29.890Z,42.20
2022-08-21T09:11:18.579Z,46.33
2022-08-21T09:14:01.500Z,47.63
2022-08-21T09:16:58.874Z,45.10
2022-08-21T09:19:48.823Z,48.67
2022-08-21T09:22:25.539Z,47.78
2022-08-21T09:25:09.110Z,46.88
2022-08-21T09:27:37.547Z,48.42
2022-08-21T09:30:06.566Z,41.30
2022-08-21T09:32:37.631Z,44.80
2022-08-21T09:35:07.138Z,45.92
2022-08-21T09:37:45.969Z,42.20
2022-08-21T09:40:32.529Z,44.55
2022-08-21T09:45:33.989Z,43.58
2022-08-21T09:48:20.705Z,47.08
2022-08-21T09:50:49.206Z,42.25
2022-08-21T09:53:24.820Z,42.38
2022-08-21T09:56:13.644Z,45.47
2022-08-21T09:58:43.005Z,47.38
2022-08-21T10:01:16.329Z,41.30
2022-08-21T10:03:43.392Z,40.75
2022-08-21T10:06:11.839Z,42.22
2022-08-21T10:08:41.770Z,43.78
2022-08-21T10:11:15.486Z,42.20
2022-08-21T10:14:08.403Z,42.55
2022-08-21T10:17:13.715Z,40.20
2022-08-21T10:19:55.982Z,45.88
2022-08-21T10:22:37.857Z,40.00
2022-08-21T10:25:15.558Z,38.92
2022-08-21T10:28:03.141Z,41.25
2022-08-21T10:30:49.443Z,41.85
2022-08-21T10:33:32.508Z,42.80
2022-08-21T10:36:18.038Z,50.58
2022-08-21T10:39:26.085Z,47.78
2022-08-21T10:42:03.947Z,39.97
2022-08-21T10:44:30.532Z,39.40
2022-08-21T10:47:07.813Z,25.30
2022-08-21T10:49:54.313Z,23.70
2022-08-21T10:52:27.978Z,17.40
2022-08-21T10:55:08.982Z,16.98
2022-08-21T10:57:58.232Z,16.17
2022-08-21T11:00:33.180Z,25.02
2022-08-21T11:03:09.142Z,19.88
2022-08-21T11:05:46.476Z,16.05
2022-08-21T11:08:22.536Z,10.70
2022-08-21T11:11:00.054Z,10.00
2022-08-21T11:13:32.232Z,8.63
2022-08-21T11:16:10.108Z,8.50
2022-08-21T11:18:45.287Z,7.60
2022-08-21T11:21:30.541Z,7.60
2022-08-21T11:24:15.897Z,7.68
2022-08-21T11:26:50.163Z,8.13
2022-08-21T11:29:27.768Z,8.35
2022-08-21T11:32:29.580Z,9.75
2022-08-21T11:35:18.221Z,12.52
2022-08-21T11:38:00.240Z,6.05
2022-08-21T11:41:03.656Z,7.32
2022-08-21T11:43:45.561Z,8.88
2022-08-21T11:46:47.222Z,8.07
2022-08-21T11:49:49.008Z,8.55
2022-08-21T11:52:21.977Z,8.50
2022-08-21T11:55:08.490Z,7.75
2022-08-21T11:57:56.216Z,6.38
2022-08-21T12:00:36.653Z,5.38
2022-08-21T12:03:33.781Z,6.20
2022-08-21T12:08:32.167Z,6.78
2022-08-21T12:11:04.262Z,6.30
2022-08-21T12:13:40.461Z,7.32
2022-08-21T12:16:14.886Z,6.85
2022-08-21T12:18:42.623Z,8.30
2022-08-21T12:21:26.479Z,5.38
2022-08-21T12:24:03.353Z,9.90
2022-08-21T12:26:50.967Z,5.38
2022-08-21T12:29:25.177Z,6.32
2022-08-21T12:31:56.832Z,4.38
2022-08-21T12:34:34.363Z,6.20
2022-08-21T12:37:18.715Z,5.05
2022-08-21T12:39:49.901Z,12.68
2022-08-21T12:42:21.449Z,5.18
2022-08-21T12:44:54.743Z,5.25
2022-08-21T12:47:34.219Z,5.95
2022-08-21T12:50:10.391Z,6.03
2022-08-21T12:55:13.454Z,5.80
2022-08-21T12:57:41.593Z,6.97
2022-08-21T13:00:13.824Z,6.63
2022-08-21T13:02:49.176Z,6.32
2022-08-21T13:05:26.338Z,7.10
2022-08-21T13:07:52.978Z,6.95
2022-08-21T13:10:22.249Z,5.65
2022-08-21T13:12:49.931Z,6.05
2022-08-21T13:15:25.802Z,6.65
2022-08-21T13:18:03.402Z,7.57
2022-08-21T13:20:33.383Z,11.93
2022-08-21T13:23:02.656Z,7.88
2022-08-21T13:25:34.947Z,6.80
2022-08-21T13:28:10.497Z,8.50
2022-08-21T13:30:43.841Z,7.55
2022-08-21T13:33:13.514Z,9.23
2022-08-21T13:35:53.105Z,7.63
2022-08-21T13:38:26.948Z,6.30
2022-08-21T13:40:57.900Z,7.15
2022-08-21T13:43:33.273Z,7.63
2022-08-21T13:46:01.547Z,6.60
2022-08-21T13:48:32.770Z,9.02
2022-08-21T13:51:01.547Z,7.07
2022-08-21T13:53:31.804Z,6.25
2022-08-21T13:56:01.092Z,8.02
2022-08-21T13:58:32.347Z,9.00
2022-08-21T14:01:01.413Z,6.55
2022-08-21T14:03:31.629Z,7.82
2022-08-21T14:06:00.314Z,7.35
2022-08-21T14:08:32.309Z,5.82
2022-08-21T14:10:59.656Z,7.47
2022-08-21T14:13:31.849Z,7.07
2022-08-21T14:16:03.511Z,8.00
2022-08-21T14:18:30.353Z,8.75
2022-08-21T14:21:07.321Z,9.38
2022-08-21T14:23:34.111Z,9.00
2022-08-21T14:26:02.668Z,9.00
2022-08-21T14:28:33.222Z,15.13
2022-08-21T14:31:13.956Z,11.27
2022-08-21T14:33:40.793Z,11.85
2022-08-21T14:36:07.783Z,14.77
2022-08-21T14:38:40.758Z,10.30
2022-08-21T14:41:18.326Z,7.50
2022-08-21T14:43:47.465Z,8.60
2022-08-21T14:46:26.408Z,7.40
2022-08-21T14:48:53.537Z,7.97
2022-08-21T14:51:20.183Z,9.52
2022-08-21T14:53:48.362Z,12.13
2022-08-21T14:56:16.362Z,8.48
2022-08-21T14:58:46.240Z,8.93
2022-08-21T15:01:15.021Z,8.80
2022-08-21T15:03:41.940Z,7.93
2022-08-21T15:06:09.547Z,12.27
2022-08-21T15:08:36.534Z,8.10
2022-08-21T15:11:13.704Z,9.48
2022-08-21T15:13:43.063Z,10.23
2022-08-21T15:16:11.562Z,11.05
2022-08-21T15:18:38.646Z,11.13
2022-08-21T15:21:05.319Z,11.25
2022-08-21T15:23:31.903Z,10.80
2022-08-21T15:25:59.803Z,10.00
2022-08-21T15:28:31.680Z,13.90
2022-08-21T15:31:01.348Z,9.77
2022-08-21T15:33:28.180Z,10.88
2022-08-21T15:35:54.793Z,14.35
2022-08-21T15:38:21.373Z,13.13
2022-08-21T15:40:52.167Z,12.23
2022-08-21T15:43:29.818Z,12.82
2022-08-21T15:45:59.610Z,14.77
2022-08-21T15:48:26.245Z,11.77
2022-08-21T15:50:52.879Z,13.52
2022-08-21T15:53:19.503Z,15.90
2022-08-21T15:55:46.334Z,14.45
2022-08-21T15:58:16.062Z,16.63
2022-08-21T16:00:45.078Z,17.67
2022-08-21T16:03:17.572Z,13.90
2022-08-21T16:05:45.684Z,14.55
2022-08-21T16:08:12.783Z,13.25
2022-08-21T16:10:39.907Z,12.57
2022-08-21T16:13:21.044Z,12.10
2022-08-21T16:15:47.701Z,14.80
2022-08-21T16:18:14.574Z,14.20
2022-08-21T16:20:41.422Z,13.13
2022-08-21T16:23:08.340Z,12.07
2022-08-21T16:25:38.203Z,10.50
2022-08-21T16:28:09.443Z,17.23
2022-08-21T16:30:38.897Z,12.95
2022-08-21T16:33:06.514Z,11.02
2022-08-21T16:35:33.456Z,11.70
2022-08-21T16:38:00.190Z,11.27
2022-08-21T16:40:28.451Z,9.43
2022-08-21T16:42:55.730Z,13.73
2022-08-21T16:45:22.458Z,11.80
2022-08-21T16:47:49.885Z,11.70
2022-08-21T16:50:22.195Z,11.43
2022-08-21T16:52:49.022Z,15.98
2022-08-21T16:55:15.853Z,14.65
2022-08-21T16:57:42.685Z,17.13
2022-08-21T17:00:13.821Z,16.27
2022-08-21T17:02:50.648Z,11.05
2022-08-21T17:05:17.526Z,13.50
2022-08-21T17:07:44.224Z,12.88
2022-08-21T17:10:13.366Z,14.02
2022-08-21T17:12:43.329Z,11.60
2022-08-21T17:15:29.633Z,14.95
2022-08-21T17:17:56.639Z,11.77
2022-08-21T17:20:23.457Z,10.10
2022-08-21T17:22:50.295Z,11.18
2022-08-21T17:25:17.260Z,14.60
2022-08-21T17:27:44.538Z,14.77
2022-08-21T17:30:12.768Z,13.80
2022-08-21T17:32:39.824Z,11.80
2022-08-21T17:35:07.040Z,12.07
2022-08-21T17:37:34.015Z,13.10
2022-08-21T17:40:00.677Z,13.45
2022-08-21T17:42:27.471Z,14.60
2022-08-21T17:44:56.450Z,11.02
2022-08-21T17:47:26.162Z,13.90
2022-08-21T17:49:53.275Z,11.38
2022-08-21T17:52:19.884Z,12.13
2022-08-21T17:54:46.535Z,12.00
2022-08-21T17:57:19.983Z,13.23
2022-08-21T18:04:46.906Z,12.43
2022-08-21T18:07:31.819Z,11.27
2022-08-21T18:10:01.173Z,14.13
2022-08-21T18:12:28.655Z,13.02
2022-08-21T18:14:55.504Z,13.98
2022-08-21T18:17:23.873Z,13.38
2022-08-21T18:19:50.537Z,13.52
2022-08-21T18:22:17.093Z,13.70
2022-08-21T18:24:44.355Z,14.40
2022-08-21T18:27:13.204Z,15.40
2022-08-21T18:29:47.003Z,18.50
2022-08-21T18:32:30.468Z,16.77
2022-08-21T18:35:01.406Z,15.25
2022-08-21T18:37:28.605Z,15.32
2022-08-21T18:39:58.924Z,16.90
2022-08-21T18:42:28.695Z,19.52
2022-08-21T18:45:01.080Z,12.93
2022-08-21T18:47:37.139Z,20.02
2022-08-21T18:52:37.753Z,14.10
2022-08-21T18:55:06.114Z,16.83
2022-08-21T18:57:33.979Z,11.48
2022-08-21T19:00:04.238Z,14.45
2022-08-21T19:02:31.228Z,11.90
2022-08-21T19:04:57.802Z,10.77
2022-08-21T19:07:25.013Z,10.27
2022-08-21T19:10:21.008Z,9.88
2022-08-21T19:12:41.591Z,21.23
2022-08-21T19:15:12.902Z,13.10
2022-08-21T19:17:40.250Z,18.00
2022-08-21T19:20:16.757Z,12.52
2022-08-21T19:22:59.357Z,11.30
2022-08-21T19:25:33.373Z,10.98
2022-08-21T19:28:03.128Z,12.52
2022-08-21T19:30:30.846Z,20.42
2022-08-21T19:32:57.823Z,15.65
2022-08-21T19:35:26.663Z,14.50
2022-08-21T19:37:53.267Z,14.80
2022-08-21T19:40:22.179Z,14.23
2022-08-21T19:42:49.232Z,14.02
2022-08-21T19:45:15.812Z,14.20
2022-08-21T19:47:47.421Z,13.30
2022-08-21T19:53:02.151Z,14.13
2022-08-21T19:55:29.026Z,13.45
2022-08-21T19:57:55.878Z,13.68
2022-08-21T20:00:24.122Z,13.05
2022-08-21T20:02:51.340Z,16.35
2022-08-21T20:05:18.365Z,16.67
2022-08-21T20:07:46.036Z,14.48
2022-08-21T20:10:13.090Z,17.73
2022-08-21T20:12:41.257Z,17.38
2022-08-21T20:15:09.272Z,16.98
2022-08-21T20:17:36.316Z,16.58
2022-08-21T20:20:04.374Z,18.00
2022-08-21T20:22:30.997Z,15.20
2022-08-21T20:24:58.723Z,18.95
2022-08-21T20:27:27.585Z,19.35
2022-08-21T20:29:54.891Z,22.08
2022-08-21T20:32:22.512Z,17.17
2022-08-21T20:34:51.803Z,17.50
2022-08-21T20:37:35.857Z,15.57
2022-08-21T20:40:10.081Z,17.85
2022-08-21T20:42:38.978Z,19.48
2022-08-21T20:45:08.342Z,15.82
2022-08-21T20:47:37.642Z,14.38
2022-08-21T20:53:00.739Z,18.98
2022-08-21T20:55:29.645Z,14.55
2022-08-21T20:58:04.019Z,15.45
2022-08-21T21:00:34.978Z,16.83
2022-08-21T21:03:30.277Z,13.82
2022-08-21T21:06:03.596Z,17.75
2022-08-21T21:08:34.245Z,16.80
2022-08-21T21:11:07.441Z,19.40
2022-08-21T21:13:46.825Z,13.88
2022-08-21T21:16:19.666Z,19.58
2022-08-21T21:18:53.377Z,19.45
2022-08-21T21:21:33.136Z,19.20
2022-08-21T21:24:12.027Z,18.38
2022-08-21T21:26:48.652Z,15.80
2022-08-21T21:29:24.350Z,15.45
2022-08-21T21:31:53.858Z,15.80
2022-08-21T21:34:23.023Z,17.30
2022-08-21T21:36:57.521Z,17.50
2022-08-21T21:39:42.417Z,20.17
2022-08-21T21:42:08.972Z,25.13
2022-08-21T21:44:36.757Z,16.40
2022-08-21T21:47:33.830Z,21.52
2022-08-21T21:50:18.769Z,16.83
2022-08-21T21:53:01.213Z,17.55
2022-08-21T21:55:30.002Z,17.40
2022-08-21T21:58:27.123Z,15.45
2022-08-21T22:03:35.814Z,14.38
2022-08-21T22:06:25.916Z,14.23
2022-08-21T22:12:03.130Z,19.15
2022-08-21T22:14:37.155Z,21.40
2022-08-21T22:17:18.274Z,17.85
2022-08-21T22:19:46.587Z,17.77
2022-08-21T22:22:20.125Z,18.23
2022-08-21T22:24:50.771Z,17.95
2022-08-21T22:27:28.976Z,14.05
2022-08-21T22:30:00.762Z,16.73
2022-08-21T22:32:27.353Z,21.27
2022-08-21T22:35:09.719Z,30.92
2022-08-21T22:37:39.649Z,21.05
2022-08-21T22:40:12.700Z,20.38
2022-08-21T22:45:12.146Z,14.43
2022-08-21T22:47:41.997Z,19.83
2022-08-21T22:50:21.727Z,18.67
2022-08-21T22:52:55.111Z,17.20
2022-08-21T22:55:24.137Z,19.50
2022-08-21T22:58:19.712Z,21.17
2022-08-21T23:01:02.973Z,19.80
2022-08-21T23:03:32.583Z,18.52
2022-08-21T23:06:03.155Z,21.38
2022-08-21T23:08:39.934Z,18.33
2022-08-21T23:11:15.639Z,24.13
2022-08-21T23:13:47.258Z,27.02
2022-08-21T23:16:22.182Z,32.03
2022-08-21T23:19:10.557Z,21.77
2022-08-21T23:21:53.323Z,22.40
2022-08-21T23:24:46.589Z,18.88
2022-08-21T23:27:46.815Z,21.02
2022-08-21T23:30:44.650Z,16.10
2022-08-21T23:33:17.557Z,17.27
2022-08-21T23:36:20.430Z,32.90
2022-08-21T23:39:11.321Z,34.20
2022-08-21T23:42:08.441Z,20.33
2022-08-21T23:44:59.431Z,15.50
2022-08-21T23:47:53.779Z,20.67
2022-08-21T23:50:41.362Z,19.98
2022-08-21T23:53:19.367Z,16.15
2022-08-21T23:56:25.730Z,18.50
2022-08-21T23:59:18.619Z,22.75
